Time;durP1;ratioP1;P1;durP2;ratioP2;P2;SDS_P1;SDS_P2;PMS_P1;PMS_P2;Temp;Humidity;BMP_temperature;BMP_pressure;BME280_temperature;BME280_humidity;BME280_pressure;Samples;Min_cycle;Max_cycle;Signal;HPM_P1;HPM_P2
2023/11/05 00:01:42;;;;;;;20.00;11.77;;;;;;;7.50;76.31;97963.03;5095092;28;20652;-67
2023/11/05 00:04:11;;;;;;;18.03;10.87;;;;;;;7.53;76.07;97972.34;5094728;28;20320;-67
2023/11/05 00:06:39;;;;;;;23.40;11.57;;;;;;;7.55;75.59;97969.72;5080881;28;20299;-69
2023/11/05 00:09:08;;;;;;;17.53;10.70;;;;;;;7.57;75.80;97973.91;5094941;28;20208;-68
2023/11/05 00:11:36;;;;;;;20.07;11.40;;;;;;;7.58;75.39;97975.59;5094754;28;20808;-67
2023/11/05 00:14:05;;;;;;;17.47;10.67;;;;;;;7.58;75.31;97975.59;5094568;28;20201;-67
2023/11/05 00:16:34;;;;;;;16.43;10.63;;;;;;;7.58;75.01;97978.16;5094108;28;20196;-69
2023/11/05 00:19:02;;;;;;;17.53;10.53;;;;;;;7.58;75.94;97967.06;5094349;28;20236;-69
2023/11/05 00:21:31;;;;;;;18.67;11.23;;;;;;;7.58;75.51;97962.78;5091935;28;20201;-68
2023/11/05 00:23:59;;;;;;;15.67;10.50;;;;;;;7.62;75.99;97966.06;5094548;28;20675;-69
2023/11/05 00:26:28;;;;;;;14.67;9.97;;;;;;;7.62;75.73;97961.81;5093853;28;20757;-69
2023/11/05 00:28:55;;;;;;;13.73;9.27;;;;;;;7.65;75.29;97973.66;5094198;28;20232;-69
2023/11/05 00:31:24;;;;;;;17.07;9.67;;;;;;;7.62;75.29;97966.94;5093957;28;20221;-68
2023/11/05 00:33:52;;;;;;;15.93;10.17;;;;;;;7.63;75.91;97968.59;5093839;28;20232;-68
2023/11/05 00:36:21;;;;;;;16.07;10.53;;;;;;;7.59;75.94;97950.81;5094268;28;20656;-71
2023/11/05 00:38:50;;;;;;;17.40;10.60;;;;;;;7.54;76.00;97943.25;5093590;28;20201;-68
2023/11/05 00:41:18;;;;;;;19.30;11.87;;;;;;;7.50;76.50;97936.56;5094208;28;20209;-68
2023/11/05 00:43:47;;;;;;;18.53;11.03;;;;;;;7.45;76.07;97929.03;5094049;28;20201;-69
2023/11/05 00:46:15;;;;;;;19.83;11.73;;;;;;;7.42;76.97;97918.88;5093851;28;20222;-68
2023/11/05 00:48:43;;;;;;;18.17;11.37;;;;;;;7.44;77.13;97926.53;5093717;28;20250;-68
2023/11/05 00:51:11;;;;;;;18.03;12.10;;;;;;;7.43;77.82;97922.28;5093626;28;20659;-71
2023/11/05 00:53:39;;;;;;;18.37;11.80;;;;;;;7.44;76.87;97921.41;5094399;28;20211;-69
2023/11/05 00:56:10;;;;;;;21.57;12.57;;;;;;;7.40;77.70;97910.44;5096313;28;20563;-68
2023/11/05 00:58:38;;;;;;;21.37;12.07;;;;;;;7.40;76.94;97910.44;5093310;28;20219;-69
2023/11/05 01:01:06;;;;;;;22.47;13.50;;;;;;;7.35;77.48;97896.91;5093238;28;20204;-69
2023/11/05 01:03:34;;;;;;;23.67;14.00;;;;;;;7.34;77.83;97899.53;5092943;28;20207;-66
2023/11/05 01:06:02;;;;;;;24.73;14.00;;;;;;;7.29;77.38;97886.03;5093511;28;20556;-68
2023/11/05 01:08:31;;;;;;;27.63;15.33;;;;;;;7.28;78.32;97895.44;5093123;28;20268;-67
2023/11/05 01:10:59;;;;;;;20.97;15.00;;;;;;;7.24;78.57;97901.56;5093202;28;20212;-70
2023/11/05 01:13:28;;;;;;;21.90;14.53;;;;;;;7.22;78.37;97890.53;5079532;28;20317;-69
2023/11/05 01:15:56;;;;;;;27.90;16.23;;;;;;;7.22;78.11;97895.66;5093342;28;20206;-68
2023/11/05 01:18:25;;;;;;;25.83;16.70;;;;;;;7.17;78.52;97877.03;5092730;28;20228;-71
2023/11/05 01:20:53;;;;;;;26.70;16.73;;;;;;;7.14;78.40;97877.13;5093192;28;20219;-70
2023/11/05 01:23:21;;;;;;;32.93;18.10;;;;;;;7.09;78.56;97869.59;5092287;28;20200;-69
2023/11/05 01:25:49;;;;;;;27.47;17.30;;;;;;;7.04;78.29;97866.38;5092946;28;20254;-73
2023/11/05 01:28:17;;;;;;;29.67;17.53;;;;;;;7.02;78.87;97870.69;5092963;28;20201;-68
2023/11/05 01:30:47;;;;;;;32.27;18.43;;;;;;;6.97;79.03;97870.00;5093102;28;20630;-70
2023/11/05 01:33:15;;;;;;;32.53;20.23;;;;;;;6.93;78.84;97865.88;5092405;28;20224;-69
2023/11/05 01:35:43;;;;;;;30.10;18.63;;;;;;;6.88;79.23;97862.59;5092778;28;20208;-68
2023/11/05 01:38:11;;;;;;;30.93;18.53;;;;;;;6.82;80.00;97858.53;5092690;28;20197;-69
2023/11/05 01:40:39;;;;;;;30.63;19.33;;;;;;;6.74;79.76;97858.78;5092600;28;20258;-69
2023/11/05 01:43:07;;;;;;;30.73;19.17;;;;;;;6.68;80.38;97858.13;5091754;28;20232;-67
2023/11/05 01:45:35;;;;;;;33.77;19.97;;;;;;;6.66;80.66;97847.09;5092405;28;20558;-68
2023/11/05 01:48:06;;;;;;;30.70;18.87;;;;;;;6.62;80.92;97843.78;5092584;28;20580;-70
2023/11/05 01:50:35;;;;;;;33.53;19.53;;;;;;;6.59;81.13;97849.03;5091361;28;20209;-68
2023/11/05 01:53:03;;;;;;;31.77;20.03;;;;;;;6.58;81.39;97844.78;5092106;28;20300;-68
2023/11/05 01:55:34;;;;;;;34.10;19.90;;;;;;;6.62;81.66;97838.66;5092159;28;20679;-69
2023/11/05 01:58:04;;;;;;;31.73;19.33;;;;;;;6.67;81.99;97836.00;5092146;28;20201;-68
2023/11/05 02:00:32;;;;;;;31.13;19.50;;;;;;;6.68;81.75;97833.38;5092047;28;20215;-68
2023/11/05 02:03:01;;;;;;;32.43;19.63;;;;;;;6.69;81.76;97829.91;5092153;28;20247;-69
2023/11/05 02:05:31;;;;;;;30.40;19.17;;;;;;;6.66;81.45;97824.88;5092280;28;20235;-69
2023/11/05 02:08:00;;;;;;;33.10;19.00;;;;;;;6.63;81.96;97827.56;5091760;28;20196;-69
2023/11/05 02:10:28;;;;;;;30.47;19.57;;;;;;;6.60;81.45;97845.56;5091897;28;20205;-69
2023/11/05 02:12:57;;;;;;;33.70;19.60;;;;;;;6.58;81.89;97849.06;5091452;28;20338;-70
2023/11/05 02:15:26;;;;;;;34.37;20.37;;;;;;;6.52;82.00;97847.53;5096520;28;20200;-68
2023/11/05 02:17:54;;;;;;;33.53;20.07;;;;;;;6.49;82.27;97853.56;5094500;28;20233;-71
2023/11/05 02:20:23;;;;;;;30.37;19.50;;;;;;;6.46;82.35;97847.72;5091809;28;20200;-68
2023/11/05 02:22:53;;;;;;;32.27;19.37;;;;;;;6.45;82.72;97838.38;5091850;28;20228;-68
2023/11/05 02:25:23;;;;;;;30.37;19.80;;;;;;;6.45;82.18;97836.66;5077954;28;20537;-68
2023/11/05 02:27:52;;;;;;;30.67;19.80;;;;;;;6.41;82.91;97835.06;5091942;28;20224;-68
2023/11/05 02:30:23;;;;;;;30.93;19.67;;;;;;;6.40;82.54;97835.94;5097206;28;20207;-68
2023/11/05 02:32:52;;;;;;;30.10;19.13;;;;;;;6.37;83.22;97830.94;5099382;28;20227;-69
2023/11/05 02:35:20;;;;;;;31.77;20.23;;;;;;;6.40;82.58;97840.22;5091406;28;20232;-68
2023/11/05 02:37:48;;;;;;;30.57;19.57;;;;;;;6.38;83.20;97835.16;5091450;28;20284;-69
2023/11/05 02:40:16;;;;;;;28.60;19.07;;;;;;;6.35;83.28;97827.56;5091863;28;20227;-67
2023/11/05 02:42:47;;;;;;;30.53;20.37;;;;;;;6.38;83.57;97818.97;5091273;28;20561;-68
2023/11/05 02:45:15;;;;;;;32.27;19.87;;;;;;;6.36;83.57;97806.22;5091212;28;20269;-69
2023/11/05 02:47:43;;;;;;;33.50;20.23;;;;;;;6.40;83.04;97824.88;5091438;28;20212;-67
2023/11/05 02:50:11;;;;;;;32.27;20.30;;;;;;;6.40;82.83;97810.34;5091523;28;20552;-68
2023/11/05 02:52:41;;;;;;;31.63;19.43;;;;;;;6.40;82.99;97801.84;5090990;28;20232;-67
2023/11/05 02:55:10;;;;;;;31.93;18.10;;;;;;;6.39;82.84;97795.91;5091790;28;20201;-67
2023/11/05 02:57:39;;;;;;;30.73;19.40;;;;;;;6.37;83.61;97801.94;5091319;28;20576;-67
2023/11/05 03:00:10;;;;;;;33.37;19.87;;;;;;;6.35;82.87;97798.59;5091457;28;20744;-69
2023/11/05 03:02:38;;;;;;;29.93;18.47;;;;;;;6.30;83.67;97788.53;5090932;28;20634;-67
2023/11/05 03:05:07;;;;;;;27.57;18.43;;;;;;;6.37;83.06;97795.13;5091168;28;20201;-69
2023/11/05 03:07:35;;;;;;;31.03;19.03;;;;;;;6.38;84.14;97785.72;5090821;28;20211;-69
2023/11/05 03:10:04;;;;;;;29.30;19.47;;;;;;;6.36;83.37;97775.53;5091226;28;20648;-68
2023/11/05 03:12:32;;;;;;;28.20;18.63;;;;;;;6.37;83.82;97777.22;5090659;28;20197;-68
2023/11/05 03:15:00;;;;;;;33.27;19.07;;;;;;;6.40;84.03;97781.38;5091003;28;20204;-69
2023/11/05 03:17:30;;;;;;;27.63;17.83;;;;;;;6.41;83.77;97760.91;5090530;28;20244;-68
2023/11/05 03:19:58;;;;;;;26.60;17.07;;;;;;;6.44;83.63;97773.59;5091178;28;20619;-68
2023/11/05 03:22:26;;;;;;;25.17;17.17;;;;;;;6.48;83.20;97780.28;5091093;28;20193;-68
2023/11/05 03:24:54;;;;;;;26.40;17.37;;;;;;;6.52;83.04;97770.78;5090727;28;20208;-69
2023/11/05 03:27:22;;;;;;;28.03;17.00;;;;;;;6.50;83.08;97772.53;5090900;28;20643;-68
2023/11/05 03:29:50;;;;;;;28.43;17.20;;;;;;;6.48;82.85;97772.59;5090922;28;20213;-67
2023/11/05 03:32:18;;;;;;;26.50;17.00;;;;;;;6.44;82.85;97778.72;5090679;28;20196;-71
2023/11/05 03:34:47;;;;;;;26.43;17.63;;;;;;;6.45;82.73;97785.50;5090629;28;20246;-68
2023/11/05 03:37:15;;;;;;;26.80;17.17;;;;;;;6.45;83.17;97780.38;5090641;28;20236;-67
2023/11/05 03:39:44;;;;;;;28.23;16.97;;;;;;;6.44;82.63;97773.59;5090838;28;20583;-67
2023/11/05 03:42:13;;;;;;;25.33;16.53;;;;;;;6.44;83.20;97765.91;5089937;28;20205;-67
2023/11/05 03:44:41;;;;;;;25.00;16.93;;;;;;;6.44;82.88;97765.91;5090975;28;20538;-68
2023/11/05 03:47:09;;;;;;;27.23;16.50;;;;;;;6.45;83.08;97774.44;5090817;28;20698;-66
2023/11/05 03:49:37;;;;;;;27.00;17.70;;;;;;;6.47;83.31;97777.75;5076805;28;20204;-67
2023/11/05 03:52:07;;;;;;;26.80;16.70;;;;;;;6.48;83.23;97771.75;5090841;28;20212;-68
2023/11/05 03:54:35;;;;;;;24.63;15.47;;;;;;;6.52;82.52;97768.22;5090600;28;20212;-69
2023/11/05 03:57:03;;;;;;;25.03;16.03;;;;;;;6.50;82.58;97767.44;5090579;28;20663;-67
2023/11/05 03:59:31;;;;;;;23.33;15.50;;;;;;;6.54;82.13;97776.69;5090577;28;20242;-69
2023/11/05 04:01:59;;;;;;;24.27;15.10;;;;;;;6.53;82.43;97762.22;5090913;28;20212;-69
2023/11/05 04:04:27;;;;;;;22.63;15.00;;;;;;;6.52;81.96;97756.28;5090375;28;20208;-67
2023/11/05 04:06:56;;;;;;;23.67;13.97;;;;;;;6.58;82.02;97756.94;5090476;28;20283;-68
2023/11/05 04:09:25;;;;;;;20.40;13.33;;;;;;;6.60;82.43;97753.47;5090230;28;20208;-68
2023/11/05 04:11:53;;;;;;;25.00;14.50;;;;;;;6.63;81.23;97749.94;5090240;28;20250;-66
2023/11/05 04:14:21;;;;;;;22.43;12.23;;;;;;;6.65;81.52;97751.56;5092282;28;20740;-67
2023/11/05 04:16:49;;;;;;;23.10;14.23;;;;;;;6.69;81.15;97757.44;5079936;28;20205;-67
2023/11/05 04:19:17;;;;;;;19.93;14.30;;;;;;;6.74;81.31;97745.34;5094080;28;20211;-67
2023/11/05 04:21:45;;;;;;;27.00;14.27;;;;;;;6.77;81.12;97728.16;5093987;28;20236;-67
2023/11/05 04:24:14;;;;;;;24.17;14.60;;;;;;;6.81;80.93;97736.53;5094197;28;20209;-69
2023/11/05 04:26:43;;;;;;;24.40;14.13;;;;;;;6.79;80.74;97712.75;5093516;28;20205;-67
2023/11/05 04:29:11;;;;;;;23.57;15.83;;;;;;;6.81;80.71;97707.56;5093844;28;20208;-67
2023/11/05 04:31:39;;;;;;;21.40;13.73;;;;;;;6.79;81.27;97697.38;5093893;28;20725;-70
2023/11/05 04:34:07;;;;;;;22.50;14.13;;;;;;;6.80;80.88;97693.09;5082215;28;20683;-69
2023/11/05 04:36:39;;;;;;;20.90;14.50;;;;;;;6.76;80.12;97703.44;5093931;28;20219;-69
2023/11/05 04:39:08;;;;;;;20.77;13.93;;;;;;;6.77;80.33;97697.44;5094046;28;20209;-66
2023/11/05 04:41:36;;;;;;;20.77;13.53;;;;;;;6.74;80.40;97691.59;5094594;28;20204;-68
2023/11/05 04:44:06;;;;;;;23.47;15.03;;;;;;;6.72;80.29;97689.06;5083317;28;20665;-68
2023/11/05 04:46:39;;;;;;;22.33;14.77;;;;;;;6.66;80.08;97691.84;5093480;28;20697;-70
2023/11/05 04:49:07;;;;;;;23.03;14.83;;;;;;;6.60;80.58;97678.44;5093432;28;20235;-68
2023/11/05 04:51:35;;;;;;;20.70;14.47;;;;;;;6.58;80.68;97672.53;5093291;28;20201;-72
2023/11/05 04:54:03;;;;;;;20.53;14.87;;;;;;;6.56;80.02;97669.19;5093547;28;20672;-68
2023/11/05 04:56:31;;;;;;;25.00;15.07;;;;;;;6.50;79.82;97653.16;5093653;28;20263;-67
2023/11/05 04:58:59;;;;;;;25.67;16.27;;;;;;;6.48;80.21;97639.59;5093194;28;20288;-68
2023/11/05 05:01:28;;;;;;;23.03;14.47;;;;;;;6.45;79.91;97641.41;5091404;28;20201;-67
2023/11/05 05:03:56;;;;;;;23.83;14.83;;;;;;;6.40;80.73;97643.28;5093262;28;20203;-68
2023/11/05 05:06:24;;;;;;;23.83;15.17;;;;;;;6.38;80.59;97640.78;5092954;28;20239;-69
2023/11/05 05:08:52;;;;;;;23.17;14.80;;;;;;;6.37;80.25;97644.22;5092950;28;20207;-70
2023/11/05 05:11:20;;;;;;;20.57;14.83;;;;;;;6.39;80.42;97639.06;5074739;28;20208;-71
2023/11/05 05:13:48;;;;;;;19.97;13.43;;;;;;;6.41;80.69;97655.19;5093150;28;20220;-68
2023/11/05 05:16:17;;;;;;;22.17;13.40;;;;;;;6.46;80.07;97663.53;5092826;28;20246;-67
2023/11/05 05:18:47;;;;;;;24.47;13.97;;;;;;;6.48;79.93;97672.84;5093040;28;20236;-68
2023/11/05 05:21:15;;;;;;;21.97;13.63;;;;;;;6.53;79.41;97690.59;5092914;28;20212;-67
2023/11/05 05:23:43;;;;;;;21.10;13.23;;;;;;;6.56;79.23;97703.28;5093138;28;20599;-68
2023/11/05 05:26:12;;;;;;;20.20;12.57;;;;;;;6.63;78.97;97702.19;5093069;28;20667;-68
2023/11/05 05:28:40;;;;;;;20.47;11.80;;;;;;;6.64;78.86;97701.31;5092624;28;20230;-69
2023/11/05 05:31:08;;;;;;;17.67;11.37;;;;;;;6.72;77.28;97714.66;5092562;28;20197;-66
2023/11/05 05:33:36;;;;;;;18.27;11.03;;;;;;;6.73;77.63;97718.06;5094158;28;20192;-68
2023/11/05 05:36:06;;;;;;;13.90;9.83;;;;;;;6.77;76.57;97724.75;5092668;28;20197;-66
2023/11/05 05:38:34;;;;;;;16.60;10.17;;;;;;;6.79;76.30;97722.97;5092662;28;20207;-66
2023/11/05 05:41:02;;;;;;;14.00;9.67;;;;;;;6.81;76.50;97730.59;5092759;28;20663;-66
2023/11/05 05:43:30;;;;;;;15.97;10.23;;;;;;;6.81;75.96;97733.16;5092317;28;20208;-68
2023/11/05 05:45:58;;;;;;;16.10;9.90;;;;;;;6.85;76.26;97727.91;5092667;28;20707;-70
2023/11/05 05:48:26;;;;;;;17.83;9.97;;;;;;;6.88;76.16;97726.94;5092379;28;20204;-68
2023/11/05 05:50:54;;;;;;;16.27;10.17;;;;;;;6.93;76.00;97720.78;5092081;28;20204;-67
2023/11/05 05:53:24;;;;;;;16.43;9.37;;;;;;;6.95;75.62;97723.28;5092508;28;20678;-68
2023/11/05 05:55:52;;;;;;;13.87;8.80;;;;;;;6.92;76.20;97716.56;5091861;28;20228;-68
2023/11/05 05:58:21;;;;;;;12.93;8.73;;;;;;;6.99;74.75;97719.72;5092478;28;20201;-67
2023/11/05 06:00:50;;;;;;;15.07;8.77;;;;;;;7.03;74.98;97716.16;5091922;28;20238;-68
2023/11/05 06:03:18;;;;;;;15.43;9.10;;;;;;;7.10;74.40;97711.69;5096410;28;20643;-67
2023/11/05 06:05:46;;;;;;;15.37;9.33;;;;;;;7.06;74.75;97690.47;5091874;28;20239;-67
2023/11/05 06:08:14;;;;;;;12.80;8.47;;;;;;;7.14;74.31;97701.28;5092069;28;20690;-68
2023/11/05 06:10:43;;;;;;;11.50;8.60;;;;;;;7.17;74.18;97698.59;5091608;28;20213;-70
2023/11/05 06:13:11;;;;;;;14.87;8.63;;;;;;;7.19;73.63;97691.72;5091720;28;20245;-67
2023/11/05 06:15:40;;;;;;;12.23;7.67;;;;;;;7.19;74.04;97686.59;5091789;28;20298;-68
2023/11/05 06:18:08;;;;;;;14.07;8.13;;;;;;;7.20;73.67;97685.69;5091585;28;20711;-67
2023/11/05 06:20:36;;;;;;;13.10;7.80;;;;;;;7.26;73.39;97672.69;5091677;28;20284;-68
2023/11/05 06:23:04;;;;;;;12.27;8.40;;;;;;;7.34;73.22;97676.69;5091763;28;20213;-68
2023/11/05 06:25:32;;;;;;;11.70;8.00;;;;;;;7.36;73.41;97668.03;5091749;28;20229;-67
2023/11/05 06:28:01;;;;;;;12.10;7.10;;;;;;;7.38;72.96;97666.25;5091789;28;20212;-70
2023/11/05 06:30:29;;;;;;;11.33;6.93;;;;;;;7.43;73.29;97673.78;5091632;28;20207;-73
2023/11/05 06:32:57;;;;;;;9.60;6.67;;;;;;;7.50;72.23;97664.97;5090991;28;20207;-70
2023/11/05 06:35:25;;;;;;;10.67;7.03;;;;;;;7.56;71.33;97658.78;5092189;28;20224;-68
2023/11/05 06:37:53;;;;;;;9.13;6.23;;;;;;;7.60;72.15;97661.16;5099721;28;20227;-67
2023/11/05 06:40:22;;;;;;;9.27;6.03;;;;;;;7.65;71.46;97663.56;5091173;28;20203;-69
2023/11/05 06:42:50;;;;;;;8.87;6.00;;;;;;;7.72;71.24;97650.44;5095941;28;20208;-67
2023/11/05 06:45:19;;;;;;;10.13;6.23;;;;;;;7.78;71.00;97639.13;5094555;28;20197;-68
2023/11/05 06:47:47;;;;;;;9.03;5.37;;;;;;;7.84;70.16;97632.91;5090507;28;20208;-68
2023/11/05 06:50:15;;;;;;;10.20;6.00;;;;;;;7.87;69.77;97630.22;5091340;28;20656;-68
2023/11/05 06:52:43;;;;;;;9.90;5.73;;;;;;;7.94;69.95;97626.53;5091374;28;20212;-67
2023/11/05 06:55:11;;;;;;;7.70;5.27;;;;;;;7.95;69.78;97630.75;5091038;28;20289;-70
2023/11/05 06:57:39;;;;;;;10.20;5.53;;;;;;;7.93;68.44;97606.94;5091283;28;20192;-68
2023/11/05 07:00:09;;;;;;;8.90;5.43;;;;;;;8.00;69.26;97595.53;5091344;28;20204;-70
2023/11/05 07:02:39;;;;;;;8.00;5.27;;;;;;;8.04;68.75;97609.91;5089792;28;20207;-68
2023/11/05 07:05:07;;;;;;;9.33;5.40;;;;;;;8.14;68.21;97610.38;5102632;28;20717;-68
2023/11/05 07:07:37;;;;;;;9.23;5.70;;;;;;;8.23;68.48;97621.06;5091068;28;20246;-70
2023/11/05 07:10:07;;;;;;;8.43;4.90;;;;;;;8.34;67.99;97617.22;5090947;28;20283;-70
2023/11/05 07:12:41;;;;;;;7.97;5.23;;;;;;;8.39;68.35;97634.13;5093455;28;20792;-68
2023/11/05 07:15:10;;;;;;;10.80;5.70;;;;;;;8.43;67.35;97622.00;5090931;28;20265;-68
2023/11/05 07:17:39;;;;;;;8.43;5.97;;;;;;;8.49;67.66;97626.88;5090707;28;20232;-68
2023/11/05 07:20:09;;;;;;;8.13;6.07;;;;;;;8.54;67.98;97630.06;5090662;28;20204;-68
2023/11/05 07:22:37;;;;;;;10.23;5.73;;;;;;;8.65;68.17;97632.19;5091013;28;20284;-69
2023/11/05 07:25:09;;;;;;;8.93;5.70;;;;;;;8.80;67.65;97621.28;5090820;28;20193;-71
2023/11/05 07:27:38;;;;;;;10.37;6.13;;;;;;;8.90;67.17;97611.44;5090815;28;20207;-67
2023/11/05 07:30:09;;;;;;;7.70;6.10;;;;;;;9.00;66.87;97612.69;5090489;28;20227;-70
2023/11/05 07:32:37;;;;;;;7.83;5.50;;;;;;;9.07;66.20;97603.00;5090065;28;20197;-68
2023/11/05 07:35:06;;;;;;;8.90;5.20;;;;;;;9.18;66.72;97595.63;5090360;28;20303;-68
2023/11/05 07:37:35;;;;;;;7.77;5.27;;;;;;;9.26;66.57;97592.72;5091020;28;20574;-69
2023/11/05 07:40:06;;;;;;;8.87;5.20;;;;;;;9.36;65.62;97596.53;5090645;28;20295;-67
2023/11/05 07:42:36;;;;;;;5.87;4.77;;;;;;;9.47;65.47;97590.91;5090841;28;20222;-71
2023/11/05 07:45:05;;;;;;;8.77;4.87;;;;;;;9.57;64.42;97592.97;5090484;28;20197;-67
2023/11/05 07:47:33;;;;;;;9.47;4.93;;;;;;;9.68;64.74;97598.44;5090370;28;20238;-68
2023/11/05 07:50:02;;;;;;;6.83;4.63;;;;;;;9.76;64.31;97589.53;5093189;28;20200;-69
2023/11/05 07:52:31;;;;;;;6.57;4.10;;;;;;;9.85;63.61;97597.63;5094406;28;20208;-68
2023/11/05 07:54:59;;;;;;;6.20;4.33;;;;;;;9.95;64.05;97585.16;5094705;28;20601;-68
2023/11/05 07:57:27;;;;;;;5.70;4.47;;;;;;;10.03;62.77;97585.63;5094651;28;20666;-68
2023/11/05 07:59:55;;;;;;;7.23;4.77;;;;;;;10.04;62.93;97573.59;5094720;28;20583;-68
2023/11/05 08:02:24;;;;;;;7.57;4.70;;;;;;;10.05;62.53;97565.81;5094581;28;20527;-69
2023/11/05 08:04:52;;;;;;;8.30;4.53;;;;;;;10.06;62.42;97567.47;5092067;28;20193;-69
2023/11/05 08:07:20;;;;;;;8.97;4.87;;;;;;;10.06;62.56;97579.50;5094752;28;20715;-69
2023/11/05 08:09:51;;;;;;;8.50;4.80;;;;;;;9.90;62.14;97575.09;5094179;28;20212;-72
2023/11/05 08:12:19;;;;;;;6.93;4.43;;;;;;;9.70;63.03;97571.81;5094621;28;20568;-69
2023/11/05 08:14:48;;;;;;;7.50;4.47;;;;;;;9.55;63.19;97563.94;5094086;28;20200;-69
2023/11/05 08:17:16;;;;;;;6.73;4.57;;;;;;;9.40;63.87;97556.94;5093733;28;20244;-74
2023/11/05 08:19:44;;;;;;;7.20;4.57;;;;;;;9.34;65.34;97564.94;5093919;28;20211;-72
2023/11/05 08:22:12;;;;;;;6.80;4.67;;;;;;;9.28;65.21;97560.91;5095243;28;20207;-72
2023/11/05 08:24:40;;;;;;;7.63;4.80;;;;;;;9.21;65.45;97567.25;5099562;28;20204;-72
2023/11/05 08:27:10;;;;;;;5.83;4.50;;;;;;;9.14;66.21;97571.81;5093943;28;20207;-71
2023/11/05 08:29:40;;;;;;;7.37;4.80;;;;;;;9.11;66.00;97582.22;5093836;28;20204;-71
2023/11/05 08:32:08;;;;;;;4.93;4.13;;;;;;;9.06;65.94;97581.63;5094374;28;20656;-72
2023/11/05 08:34:38;;;;;;;8.73;4.90;;;;;;;9.06;66.97;97580.78;5093622;28;20197;-73
2023/11/05 08:37:06;;;;;;;12.50;4.93;;;;;;;9.08;66.61;97590.06;5093797;28;20215;-74
2023/11/05 08:39:34;;;;;;;6.83;4.60;;;;;;;9.06;67.43;97591.88;5093827;28;20660;-73
2023/11/05 08:42:03;;;;;;;7.37;4.90;;;;;;;9.05;67.44;97595.34;5093634;28;20205;-73
2023/11/05 08:44:32;;;;;;;7.73;4.70;;;;;;;8.98;67.59;97593.94;5093803;28;20683;-72
2023/11/05 08:47:00;;;;;;;7.50;4.73;;;;;;;8.92;67.74;97600.19;5093342;28;20204;-72
2023/11/05 08:49:28;;;;;;;6.27;4.47;;;;;;;8.88;67.86;97595.28;5093859;28;20212;-74
2023/11/05 08:51:57;;;;;;;6.73;4.50;;;;;;;8.80;68.51;97602.44;5093198;28;20620;-73
2023/11/05 08:54:26;;;;;;;7.33;4.70;;;;;;;8.78;69.05;97602.53;5097142;28;20673;-72
2023/11/05 08:56:53;;;;;;;8.57;4.70;;;;;;;8.79;68.43;97603.38;5093680;28;20243;-70
2023/11/05 08:59:22;;;;;;;7.37;4.57;;;;;;;8.81;68.87;97596.44;5093477;28;20608;-73
2023/11/05 09:01:52;;;;;;;7.37;4.60;;;;;;;8.85;69.42;97603.94;5093212;28;20235;-72
2023/11/05 09:04:20;;;;;;;7.43;4.67;;;;;;;8.89;69.25;97594.38;5093230;28;20201;-73
2023/11/05 09:06:48;;;;;;;6.87;3.87;;;;;;;8.91;69.74;97592.53;5092008;28;20291;-73
2023/11/05 09:09:16;;;;;;;5.67;3.70;;;;;;;8.91;69.25;97589.97;5093126;28;20267;-76
2023/11/05 09:11:45;;;;;;;5.33;3.70;;;;;;;8.93;69.60;97585.63;5079460;28;20200;-73
2023/11/05 09:14:13;;;;;;;5.30;3.60;;;;;;;8.98;69.08;97585.41;5093411;28;20667;-72
2023/11/05 09:16:41;;;;;;;5.53;3.33;;;;;;;9.03;69.53;97576.59;5093204;28;20766;-69
2023/11/05 09:19:10;;;;;;;6.10;3.87;;;;;;;9.08;69.54;97579.78;5092877;28;20731;-69
2023/11/05 09:21:41;;;;;;;4.87;3.63;;;;;;;9.17;69.15;97586.28;5092839;28;20200;-71
2023/11/05 09:24:09;;;;;;;6.47;3.50;;;;;;;9.22;68.88;97578.34;5092900;28;20231;-68
2023/11/05 09:26:37;;;;;;;5.40;3.70;;;;;;;9.28;68.74;97575.47;5092712;28;20240;-69
2023/11/05 09:29:05;;;;;;;5.30;4.00;;;;;;;9.33;68.49;97558.13;5092055;28;20265;-69
2023/11/05 09:31:33;;;;;;;6.20;3.77;;;;;;;9.38;68.92;97563.88;5092397;28;20208;-69
2023/11/05 09:34:01;;;;;;;5.50;3.73;;;;;;;9.45;68.62;97567.81;5092699;28;20235;-72
2023/11/05 09:36:31;;;;;;;6.70;4.30;;;;;;;9.51;68.34;97564.16;5103886;28;20691;-69
2023/11/05 09:38:58;;;;;;;5.07;3.67;;;;;;;9.54;68.19;97566.59;5078879;28;20207;-70
2023/11/05 09:41:27;;;;;;;5.43;3.63;;;;;;;9.54;68.08;97557.13;5092764;28;20212;-69
2023/11/05 09:43:55;;;;;;;6.33;3.80;;;;;;;9.53;68.33;97558.00;5092268;28;20282;-70
2023/11/05 09:46:25;;;;;;;9.57;4.20;;;;;;;9.51;68.44;97559.84;5092350;28;20196;-70
2023/11/05 09:48:53;;;;;;;6.00;3.60;;;;;;;9.50;68.93;97555.59;5092857;28;20532;-70
2023/11/05 09:51:21;;;;;;;6.73;4.00;;;;;;;9.51;68.91;97551.31;5092611;28;20250;-69
2023/11/05 09:53:50;;;;;;;5.30;3.40;;;;;;;9.52;68.95;97550.38;5092578;28;20224;-70
2023/11/05 09:56:19;;;;;;;5.63;3.60;;;;;;;9.54;69.29;97552.00;5091459;28;20369;-73
2023/11/05 09:58:47;;;;;;;6.57;3.67;;;;;;;9.53;69.13;97555.44;5092303;28;20696;-69
2023/11/05 10:01:15;;;;;;;5.00;3.77;;;;;;;9.51;69.60;97546.97;5092359;28;20212;-69
2023/11/05 10:03:42;;;;;;;7.30;4.03;;;;;;;9.53;69.92;97547.72;5092536;28;20235;-71
2023/11/05 10:06:17;;;;;;;6.00;3.33;;;;;;;9.55;70.27;97543.34;5090566;28;20201;-70
2023/11/05 10:08:45;;;;;;;5.33;3.57;;;;;;;9.59;70.88;97550.00;5092433;28;20270;-70
2023/11/05 10:11:14;;;;;;;6.97;3.67;;;;;;;9.65;70.87;97543.75;5091691;28;20205;-68
2023/11/05 10:13:42;;;;;;;5.20;3.60;;;;;;;9.68;70.94;97543.59;5092148;28;20226;-69
2023/11/05 10:16:12;;;;;;;5.13;3.80;;;;;;;9.70;71.37;97546.09;5091558;28;20295;-71
2023/11/05 10:18:42;;;;;;;4.77;3.63;;;;;;;9.72;71.72;97544.28;5091460;28;20232;-70
2023/11/05 10:21:11;;;;;;;5.67;3.93;;;;;;;9.75;72.39;97549.28;5092225;28;20669;-71
2023/11/05 10:23:50;;;;;;;6.07;3.37;;;;;;;9.75;72.39;97537.25;5091680;28;20208;-70
2023/11/05 10:26:29;;;;;;;5.37;3.57;;;;;;;9.78;72.41;97528.56;5091852;28;20719;-68
2023/11/05 10:28:57;;;;;;;5.93;4.10;;;;;;;9.81;72.84;97531.00;5091856;28;20208;-68
2023/11/05 10:31:26;;;;;;;6.37;3.80;;;;;;;9.86;73.27;97531.59;5091263;28;20208;-68
2023/11/05 10:33:56;;;;;;;9.73;4.10;;;;;;;9.92;73.24;97532.13;5091264;28;20208;-67
2023/11/05 10:36:25;;;;;;;5.93;3.90;;;;;;;9.95;73.43;97551.72;5103894;28;20224;-68
2023/11/05 10:38:54;;;;;;;5.23;3.33;;;;;;;9.94;73.29;97542.31;5091668;28;20210;-67
2023/11/05 10:41:23;;;;;;;6.17;3.50;;;;;;;9.97;73.70;97546.50;5091392;28;20204;-68
2023/11/05 10:43:54;;;;;;;5.03;4.00;;;;;;;10.00;73.92;97543.78;5091301;28;20287;-68
2023/11/05 10:46:22;;;;;;;6.77;3.80;;;;;;;10.02;74.29;97547.94;5091067;28;20230;-71
2023/11/05 10:48:52;;;;;;;5.27;3.30;;;;;;;10.02;74.18;97549.69;5091181;28;20196;-68
2023/11/05 10:51:23;;;;;;;5.97;3.70;;;;;;;10.03;74.15;97544.47;5077497;28;20222;-68
2023/11/05 10:53:53;;;;;;;5.00;3.80;;;;;;;10.04;74.20;97548.69;5091181;28;20292;-68
2023/11/05 10:56:36;;;;;;;4.97;3.43;;;;;;;10.02;74.40;97552.25;5090878;28;20234;-73
2023/11/05 10:59:06;;;;;;;4.33;2.90;;;;;;;9.99;74.29;97552.41;5091390;28;20208;-70
2023/11/05 11:01:37;;;;;;;4.63;3.17;;;;;;;9.91;74.50;97551.03;5077467;28;20609;-68
2023/11/05 11:04:10;;;;;;;6.23;3.87;;;;;;;9.90;74.93;97554.53;5090817;28;20215;-68
2023/11/05 11:06:40;;;;;;;3.63;2.90;;;;;;;9.88;74.05;97551.19;5089924;28;20200;-70
2023/11/05 11:09:22;;;;;;;3.53;2.33;;;;;;;9.80;74.71;97552.47;5090579;28;20249;-69
2023/11/05 11:11:51;;;;;;;2.70;2.40;;;;;;;9.74;74.89;97545.06;5090973;28;20204;-69
2023/11/05 11:14:20;;;;;;;4.60;2.83;;;;;;;9.72;75.47;97545.13;5091068;28;20208;-67
2023/11/05 11:16:48;;;;;;;5.80;3.50;;;;;;;9.73;75.93;97536.50;5090852;28;20643;-67
2023/11/05 11:19:19;;;;;;;3.50;3.20;;;;;;;9.75;75.25;97528.72;5090827;28;20211;-69
2023/11/05 11:22:01;;;;;;;4.70;3.40;;;;;;;9.75;75.81;97528.72;5091017;28;20688;-67
2023/11/05 11:24:42;;;;;;;5.57;3.20;;;;;;;9.80;76.10;97527.59;5094655;28;20210;-67
2023/11/05 11:27:15;;;;;;;4.57;3.23;;;;;;;9.79;76.13;97518.19;5095025;28;20207;-69
2023/11/05 11:29:46;;;;;;;6.40;3.43;;;;;;;9.78;75.96;97523.41;5094891;28;20215;-67
2023/11/05 11:32:16;;;;;;;5.73;3.37;;;;;;;9.74;75.72;97532.19;5077139;28;20204;-68
2023/11/05 11:34:45;;;;;;;4.07;3.40;;;;;;;9.73;76.29;97525.41;5094981;28;20235;-68
2023/11/05 11:37:14;;;;;;;5.60;3.53;;;;;;;9.72;76.68;97526.28;5095067;28;20675;-71
2023/11/05 11:39:42;;;;;;;5.70;3.40;;;;;;;9.73;77.27;97531.38;5094673;28;20212;-68